Time;durP1;ratioP1;P1;durP2;ratioP2;P2;SDS_P1;SDS_P2;PMS_P1;PMS_P2;Temp;Humidity;BMP_temperature;BMP_pressure;BME280_temperature;BME280_humidity;BME280_pressure;Samples;Min_cycle;Max_cycle;Signal;HPM_P1;HPM_P2
2022/07/24 00:02:55;;;;;;;9.18;4.30;;;;;;;17.43;83.84;100942.88;5152797;57;1138971;-68
2022/07/24 00:08:01;;;;;;;6.40;3.60;;;;;;;17.53;84.26;100952.18;5234604;56;1139023;-69
2022/07/24 00:13:07;;;;;;;5.20;3.30;;;;;;;17.60;84.07;100941.19;5243063;56;1139234;-68
2022/07/24 00:18:12;;;;;;;5.35;4.08;;;;;;;17.77;84.73;100940.37;5235687;56;1139090;-70
2022/07/24 00:23:19;;;;;;;5.15;3.70;;;;;;;17.90;84.23;100943.48;5236638;56;1137009;-69
2022/07/24 00:28:25;;;;;;;4.10;2.85;;;;;;;17.93;83.58;100943.67;5249911;56;1137050;-68
2022/07/24 00:33:31;;;;;;;3.30;2.95;;;;;;;17.91;83.37;100953.19;5250124;56;1137031;-70
2022/07/24 00:38:37;;;;;;;6.03;3.00;;;;;;;17.86;82.79;100958.19;5249992;56;1137111;-69
2022/07/24 00:44:04;;;;;;;3.70;2.62;;;;;;;17.80;82.74;100964.14;5251298;56;1137003;-68
2022/07/24 00:49:13;;;;;;;3.52;3.20;;;;;;;17.76;82.20;100966.78;5195330;56;1137021;-68
2022/07/24 00:54:21;;;;;;;3.50;2.40;;;;;;;17.71;82.38;100965.58;5155494;56;1137161;-68
2022/07/24 00:59:26;;;;;;;3.60;2.50;;;;;;;17.64;82.33;100973.37;5250249;56;1136985;-68
2022/07/24 01:04:32;;;;;;;4.42;2.58;;;;;;;17.52;81.42;100977.23;5249976;56;1137102;-71
2022/07/24 01:09:39;;;;;;;5.65;2.70;;;;;;;17.27;81.12;100983.31;5250186;56;1137012;-68
2022/07/24 01:14:44;;;;;;;3.60;2.55;;;;;;;17.16;81.80;100979.87;5249973;56;1137072;-70
2022/07/24 01:19:50;;;;;;;6.75;2.50;;;;;;;17.01;81.60;100987.20;5238086;56;1137077;-70
2022/07/24 01:24:56;;;;;;;4.43;2.13;;;;;;;16.85;81.61;100990.52;5249782;56;1137192;-70
2022/07/24 01:30:02;;;;;;;3.70;2.37;;;;;;;16.66;81.95;100987.92;5249713;56;1134873;-68
2022/07/24 01:35:08;;;;;;;2.77;2.47;;;;;;;16.48;82.40;100983.84;5249718;56;1134976;-69
2022/07/24 01:40:15;;;;;;;4.65;2.70;;;;;;;16.35;82.70;100982.80;5261986;56;1139032;-70
2022/07/24 01:45:21;;;;;;;2.76;2.26;;;;;;;16.24;83.04;100978.97;5251138;56;1139221;-69
2022/07/24 01:50:27;;;;;;;7.63;2.77;;;;;;;16.24;83.52;100984.31;5173705;56;1139127;-70
2022/07/24 01:55:33;;;;;;;3.00;2.80;;;;;;;16.27;83.62;100988.52;5216676;56;1139294;-70
2022/07/24 02:00:39;;;;;;;6.67;3.73;;;;;;;16.34;84.15;100995.83;5250365;56;1138987;-68
2022/07/24 02:05:45;;;;;;;4.57;3.90;;;;;;;16.31;83.25;100994.77;5250665;56;1139020;-70
2022/07/24 02:10:50;;;;;;;3.97;3.07;;;;;;;16.19;83.37;100991.41;5224781;56;1139110;-69
2022/07/24 02:15:56;;;;;;;8.37;2.80;;;;;;;16.17;83.67;100996.07;5250523;56;1139010;-69
2022/07/24 02:21:03;;;;;;;4.20;2.50;;;;;;;16.12;83.58;100996.14;5265537;56;22138;-69
2022/07/24 02:26:09;;;;;;;3.70;3.30;;;;;;;16.10;83.44;101000.28;5136235;57;1133074;-69
2022/07/24 02:31:15;;;;;;;4.80;2.30;;;;;;;16.17;84.02;100996.56;5071162;58;1137110;-68
2022/07/24 02:36:20;;;;;;;6.43;2.60;;;;;;;16.21;83.87;101004.61;5076679;58;1136970;-68
2022/07/24 02:41:26;;;;;;;6.10;3.00;;;;;;;16.18;83.87;101007.09;5072485;57;1137052;-68
2022/07/24 02:46:32;;;;;;;6.53;3.17;;;;;;;16.05;83.66;101005.69;5157820;57;1136943;-69
2022/07/24 02:51:38;;;;;;;4.97;3.67;;;;;;;15.98;83.71;101006.77;5160350;57;1136972;-68
2022/07/24 02:56:44;;;;;;;5.20;3.27;;;;;;;15.93;83.77;101005.49;5168303;56;1137033;-68
2022/07/24 03:01:49;;;;;;;8.37;3.30;;;;;;;15.94;84.13;101009.84;5218963;56;1136940;-69
2022/07/24 03:06:55;;;;;;;4.33;3.63;;;;;;;16.08;85.17;101012.92;5218561;56;1134907;-68
2022/07/24 03:12:01;;;;;;;5.90;3.37;;;;;;;16.22;85.03;101010.30;5215503;56;1138102;-68
2022/07/24 03:17:07;;;;;;;5.37;3.83;;;;;;;16.27;84.67;101012.05;5213737;56;1139042;-69
2022/07/24 03:22:13;;;;;;;5.90;3.30;;;;;;;16.32;83.76;101018.30;5109996;57;1139008;-70
2022/07/24 03:27:19;;;;;;;6.07;3.13;;;;;;;16.35;83.70;101019.33;5102807;57;1139023;-70
2022/07/24 03:32:25;;;;;;;4.20;3.33;;;;;;;16.32;83.57;101023.16;5096472;57;1139158;-70
2022/07/24 03:37:31;;;;;;;5.13;3.23;;;;;;;16.30;83.19;101028.28;5175649;56;1138962;-70
2022/07/24 03:42:37;;;;;;;3.93;3.27;;;;;;;16.16;82.77;101025.56;5104595;56;1139046;-68
2022/07/24 03:47:42;;;;;;;7.93;3.00;;;;;;;15.99;82.78;101028.95;5084979;57;1139304;-69
2022/07/24 03:52:49;;;;;;;9.53;2.60;;;;;;;15.87;83.11;101030.09;5175020;56;1138998;-68
2022/07/24 03:57:55;;;;;;;7.27;3.57;;;;;;;15.74;83.10;101035.67;5204677;56;1139020;-68
2022/07/24 04:03:00;;;;;;;8.10;3.50;;;;;;;15.54;83.37;101036.63;5211165;56;1139045;-68
2022/07/24 04:08:06;;;;;;;4.27;3.20;;;;;;;15.33;84.02;101040.22;5205220;56;1139049;-69
2022/07/24 04:13:13;;;;;;;6.37;3.10;;;;;;;15.30;84.85;101052.48;5205624;56;1139060;-67
2022/07/24 04:18:19;;;;;;;9.40;3.10;;;;;;;15.27;85.50;101053.27;5208517;56;1139025;-69
2022/07/24 04:23:25;;;;;;;4.50;2.70;;;;;;;15.20;86.22;101050.29;5200522;56;1139038;-71
2022/07/24 04:28:30;;;;;;;7.10;2.60;;;;;;;15.12;87.09;101042.95;5212046;56;1139023;-69
2022/07/24 04:33:36;;;;;;;3.37;1.90;;;;;;;15.09;87.81;101048.58;5209831;56;1139081;-71
2022/07/24 04:38:42;;;;;;;3.23;2.10;;;;;;;15.07;88.73;101060.34;5195560;56;1139314;-70
2022/07/24 04:43:49;;;;;;;3.83;1.73;;;;;;;15.06;90.02;101052.84;5215071;56;1139281;-70
2022/07/24 04:48:55;;;;;;;2.20;1.47;;;;;;;15.08;90.64;101056.22;5196720;56;1139301;-70
2022/07/24 04:54:01;;;;;;;3.10;1.33;;;;;;;15.12;91.40;101057.61;5207841;56;1139308;-69
2022/07/24 04:59:07;;;;;;;5.93;1.60;;;;;;;15.19;91.21;101058.42;5187504;56;1138876;-69
2022/07/24 05:04:13;;;;;;;2.57;1.20;;;;;;;15.29;91.07;101064.61;5178446;56;1139235;-68
2022/07/24 05:09:19;;;;;;;3.67;1.70;;;;;;;15.39;91.03;101062.83;5190979;56;1139005;-71
2022/07/24 05:14:25;;;;;;;6.60;1.50;;;;;;;15.51;91.06;101069.73;5209353;56;1138982;-70
2022/07/24 05:19:31;;;;;;;3.87;1.60;;;;;;;15.57;90.53;101064.38;5193844;56;1139012;-68
2022/07/24 05:24:37;;;;;;;3.67;1.73;;;;;;;15.63;91.30;101070.47;5192146;56;1139077;-71
2022/07/24 05:29:43;;;;;;;9.10;2.57;;;;;;;15.71;90.86;101076.82;5188623;56;1139045;-68
2022/07/24 05:34:48;;;;;;;5.63;1.60;;;;;;;15.81;90.69;101083.00;5214911;56;1139241;-69
2022/07/24 05:39:54;;;;;;;9.30;1.63;;;;;;;15.96;90.65;101083.42;5170142;56;1139326;-68
2022/07/24 05:45:00;;;;;;;4.87;1.50;;;;;;;16.07;90.39;101082.44;5185058;56;1139005;-66
2022/07/24 05:50:08;;;;;;;4.77;1.30;;;;;;;16.26;90.22;101079.77;5189790;56;1139058;-69
2022/07/24 05:55:14;;;;;;;1.52;1.42;;;;;;;16.39;89.48;101078.13;5203421;56;1139039;-70
2022/07/24 06:00:20;;;;;;;3.47;1.10;;;;;;;16.47;88.79;101080.45;5157783;56;1139017;-68
2022/07/24 06:05:25;;;;;;;3.20;1.17;;;;;;;16.54;87.90;101080.21;5187403;56;1139085;-69
2022/07/24 06:10:31;;;;;;;3.17;1.20;;;;;;;16.74;88.81;101085.55;5195540;56;1139018;-67
2022/07/24 06:15:37;;;;;;;6.93;2.00;;;;;;;16.82;87.03;101095.00;5182184;56;1139252;-68
2022/07/24 06:20:44;;;;;;;5.97;2.10;;;;;;;16.91;87.32;101100.83;5199690;56;1139060;-69
2022/07/24 06:25:49;;;;;;;11.67;2.73;;;;;;;17.09;87.59;101104.42;5197465;56;1139105;-68
2022/07/24 06:30:57;;;;;;;9.60;1.80;;;;;;;17.30;87.15;101100.66;5189256;56;1141182;-68
2022/07/24 06:36:02;;;;;;;3.73;1.90;;;;;;;17.51;87.50;101100.77;5074331;57;1139252;-70
2022/07/24 06:41:07;;;;;;;4.73;2.10;;;;;;;17.71;86.15;101097.52;5151754;56;1136947;-68
2022/07/24 06:46:13;;;;;;;2.67;2.03;;;;;;;17.70;84.18;101086.95;5150390;57;1136889;-69
2022/07/24 06:51:19;;;;;;;11.33;2.30;;;;;;;17.61;84.96;101091.33;5148472;57;1136954;-69
2022/07/24 06:56:24;;;;;;;6.40;2.17;;;;;;;17.61;84.90;101097.17;5149590;57;1139050;-69
2022/07/24 07:01:30;;;;;;;2.27;1.40;;;;;;;17.89;85.85;101095.67;5173664;56;1136958;-68
2022/07/24 07:06:36;;;;;;;4.40;1.60;;;;;;;17.89;81.50;101093.48;5165059;56;1136933;-69
2022/07/24 07:11:41;;;;;;;6.40;1.62;;;;;;;17.91;81.92;101099.04;5138661;56;1136901;-67
2022/07/24 07:16:48;;;;;;;5.05;1.52;;;;;;;17.88;81.58;101110.04;5102285;57;1137196;-68
2022/07/24 07:21:53;;;;;;;2.70;1.40;;;;;;;18.07;82.26;101099.69;5095107;57;1136931;-68
2022/07/24 07:26:59;;;;;;;7.70;1.40;;;;;;;18.42;80.48;101096.15;5074630;58;1137192;-67
2022/07/24 07:32:05;;;;;;;2.30;1.40;;;;;;;18.55;78.65;101098.41;5115816;56;1137125;-69
2022/07/24 07:37:12;;;;;;;3.22;1.10;;;;;;;18.56;78.86;101096.92;5129809;56;1136924;-69
2022/07/24 07:42:18;;;;;;;3.85;1.40;;;;;;;18.61;77.99;101106.71;5117577;57;1137239;-68
2022/07/24 07:47:24;;;;;;;2.90;1.20;;;;;;;18.67;76.71;101109.24;5126388;57;1136912;-69
2022/07/24 07:52:29;;;;;;;1.42;1.20;;;;;;;18.67;76.71;101109.24;5113037;57;1136946;-68
2022/07/24 07:57:35;;;;;;;1.90;1.67;;;;;;;18.54;75.95;101110.97;5083964;57;1137258;-68
2022/07/24 08:02:41;;;;;;;3.58;1.67;;;;;;;18.42;75.51;101111.37;5155442;57;1137056;-69
2022/07/24 08:07:47;;;;;;;3.15;1.40;;;;;;;18.26;75.21;101107.57;5103163;57;1137315;-70
2022/07/24 08:12:53;;;;;;;5.15;1.40;;;;;;;18.25;76.33;101107.72;5166613;56;1134875;-69
2022/07/24 08:18:00;;;;;;;4.58;1.62;;;;;;;18.38;75.16;101109.50;5174333;56;1135033;-70
2022/07/24 08:23:06;;;;;;;1.92;1.40;;;;;;;18.44;74.43;101116.93;5203252;56;1139125;-69
2022/07/24 08:28:12;;;;;;;4.60;1.27;;;;;;;18.44;76.04;101126.30;5237945;56;1139056;-70
2022/07/24 08:33:18;;;;;;;2.23;1.27;;;;;;;18.53;75.64;101126.70;5236527;56;1139180;-67
2022/07/24 08:38:24;;;;;;;8.00;1.40;;;;;;;18.66;75.78;101119.62;5251632;56;1139050;-68
2022/07/24 08:43:30;;;;;;;5.20;1.40;;;;;;;18.71;75.11;101120.50;5250867;56;1139148;-68
2022/07/24 08:48:36;;;;;;;3.60;1.30;;;;;;;18.75;75.80;101125.89;5228726;56;1139091;-69
2022/07/24 08:53:44;;;;;;;4.17;1.35;;;;;;;18.72;75.36;101135.08;5224239;56;1138965;-68
2022/07/24 08:58:49;;;;;;;3.40;1.77;;;;;;;18.66;75.26;101142.89;5240498;56;1139067;-69
2022/07/24 09:03:55;;;;;;;2.35;1.45;;;;;;;18.60;76.25;101133.16;5175460;56;1139036;-69
2022/07/24 09:09:04;;;;;;;3.45;1.57;;;;;;;18.73;76.72;101128.73;5237997;56;1139025;-69
2022/07/24 09:14:30;;;;;;;1.40;1.30;;;;;;;18.94;76.69;101126.50;5163266;57;1139082;-70
2022/07/24 09:19:55;;;;;;;5.65;1.60;;;;;;;19.03;73.52;101131.93;5157325;57;1139052;-70
2022/07/24 09:25:14;;;;;;;2.83;2.02;;;;;;;18.96;72.94;101141.93;5103807;57;1139201;-69
2022/07/24 09:30:33;;;;;;;2.20;1.98;;;;;;;18.96;73.98;101155.83;5116065;56;1138968;-68
2022/07/24 09:35:42;;;;;;;2.55;1.70;;;;;;;18.97;73.51;101157.02;5170930;56;1138731;-68
2022/07/24 09:40:59;;;;;;;4.33;1.80;;;;;;;18.97;73.87;101153.00;5149909;57;1139276;-69
2022/07/24 09:46:11;;;;;;;2.77;1.55;;;;;;;19.02;72.58;101153.88;5149888;57;1139122;-68
2022/07/24 09:51:18;;;;;;;1.45;1.10;;;;;;;19.10;72.34;101158.43;5153541;57;1139265;-70
2022/07/24 09:56:25;;;;;;;1.40;1.30;;;;;;;19.14;71.28;101149.08;5143151;57;1139167;-68
2022/07/24 10:01:31;;;;;;;2.77;1.10;;;;;;;19.16;72.25;101152.45;5132594;56;1139273;-67
2022/07/24 10:06:38;;;;;;;2.58;1.65;;;;;;;19.24;73.56;101148.48;5141192;57;1139105;-69
2022/07/24 10:11:47;;;;;;;1.87;1.20;;;;;;;19.43;73.57;101149.56;5133672;57;1139135;-70
2022/07/24 10:17:00;;;;;;;4.00;1.40;;;;;;;19.51;72.06;101156.34;5093631;57;1136961;-69
2022/07/24 10:22:13;;;;;;;3.28;1.64;;;;;;;19.43;71.63;101160.78;5131819;57;1136893;-70
2022/07/24 10:27:26;;;;;;;2.05;1.40;;;;;;;19.49;71.99;101154.33;5173628;56;1136994;-68
2022/07/24 10:32:33;;;;;;;2.83;1.20;;;;;;;19.50;71.06;101153.83;5148697;56;1136906;-69
2022/07/24 10:38:19;;;;;;;2.83;1.37;;;;;;;19.49;70.96;101167.73;5172673;56;1137081;-67
2022/07/24 10:43:25;;;;;;;1.55;1.05;;;;;;;19.51;71.09;101160.38;5198707;56;1135059;-69
2022/07/24 10:48:35;;;;;;;2.52;1.15;;;;;;;19.86;71.96;101148.56;5168312;56;1135115;-68
2022/07/24 10:53:51;;;;;;;1.40;1.30;;;;;;;20.11;70.14;101159.37;5161673;56;1138990;-67
2022/07/24 10:59:11;;;;;;;1.87;1.12;;;;;;;20.30;72.38;101146.98;5194000;56;1139096;-70
2022/07/24 11:04:26;;;;;;;5.78;1.75;;;;;;;20.61;71.04;101153.91;5188236;56;1139010;-68
2022/07/24 11:09:32;;;;;;;3.35;1.17;;;;;;;21.13;71.78;101148.94;5204305;56;1139243;-70
2022/07/24 11:14:45;;;;;;;2.22;1.15;;;;;;;21.37;69.62;101142.69;5192129;56;1139121;-68
2022/07/24 11:19:56;;;;;;;1.45;1.10;;;;;;;21.52;66.21;101143.64;5149921;57;1139000;-69
2022/07/24 11:25:13;;;;;;;0.98;0.98;;;;;;;21.68;68.43;101137.34;5135602;57;1139047;-67
2022/07/24 11:30:21;;;;;;;3.12;1.00;;;;;;;21.97;68.39;101141.55;5103752;56;1139018;-68
2022/07/24 11:35:34;;;;;;;4.08;1.12;;;;;;;22.26;67.19;101140.03;5100852;56;1138970;-68
2022/07/24 11:40:39;;;;;;;1.90;1.10;;;;;;;22.25;66.36;101144.58;5182801;56;1139039;-69
2022/07/24 11:45:54;;;;;;;1.72;0.98;;;;;;;22.51;65.94;101144.70;5152577;56;1139121;-70
2022/07/24 11:51:07;;;;;;;1.60;1.00;;;;;;;22.50;65.29;101138.98;5205112;56;1139080;-69
2022/07/24 11:56:12;;;;;;;0.82;0.75;;;;;;;22.55;64.74;101139.28;5164136;56;1139172;-71
2022/07/24 12:01:23;;;;;;;1.32;0.88;;;;;;;22.71;63.37;101139.98;5190365;56;1139227;-69
2022/07/24 12:06:30;;;;;;;2.12;1.15;;;;;;;22.62;63.68;101141.05;5195552;56;1139014;-68
2022/07/24 12:11:36;;;;;;;2.83;1.05;;;;;;;22.58;63.79;101132.19;5195875;56;1139084;-67
2022/07/24 12:16:42;;;;;;;1.12;1.00;;;;;;;22.68;62.61;101132.25;5202151;56;1139347;-68
2022/07/24 12:21:52;;;;;;;3.75;1.32;;;;;;;22.92;62.70;101120.91;5200372;56;1139038;-68
2022/07/24 12:26:59;;;;;;;4.37;1.20;;;;;;;23.17;63.24;101112.89;5160578;56;1139169;-70
2022/07/24 12:32:19;;;;;;;1.12;1.00;;;;;;;23.35;61.47;101112.51;5220388;56;1139093;-67
2022/07/24 12:37:25;;;;;;;4.28;1.10;;;;;;;23.77;63.66;101106.41;5226644;56;1136852;-68
2022/07/24 12:42:33;;;;;;;1.02;1.00;;;;;;;24.33;63.49;101093.05;5236435;56;1137056;-70
2022/07/24 12:48:18;;;;;;;3.77;1.10;;;;;;;24.70;62.39;101088.68;5208392;56;1136975;-68
2022/07/24 12:53:24;;;;;;;8.88;1.37;;;;;;;24.77;60.32;101092.25;5165613;56;1137021;-69
2022/07/24 12:58:30;;;;;;;2.77;1.60;;;;;;;24.53;58.23;101093.55;5192303;56;1137009;-70
2022/07/24 13:03:36;;;;;;;1.65;0.93;;;;;;;24.46;59.47;101097.22;5236377;56;1137003;-70
2022/07/24 13:08:42;;;;;;;3.90;1.00;;;;;;;24.42;58.99;101086.48;5236421;56;1137140;-69
2022/07/24 13:13:47;;;;;;;2.10;1.52;;;;;;;24.59;59.50;101082.98;5236504;56;1136965;-68
2022/07/24 13:18:53;;;;;;;1.00;1.00;;;;;;;24.48;55.54;101074.88;5236438;56;1136998;-68
2022/07/24 13:23:59;;;;;;;1.47;1.15;;;;;;;24.62;58.50;101070.39;5237406;56;1134872;-67
2022/07/24 13:29:06;;;;;;;4.28;1.40;;;;;;;24.93;57.67;101057.80;5238624;56;1134914;-70
2022/07/24 13:34:12;;;;;;;1.32;1.07;;;;;;;25.29;58.01;101057.59;5228546;56;1139117;-69
2022/07/24 13:39:19;;;;;;;1.53;1.10;;;;;;;25.30;54.22;101053.34;5221708;56;1139037;-70
2022/07/24 13:44:24;;;;;;;5.47;1.03;;;;;;;25.38;55.59;101044.19;5229076;56;1140946;-68
2022/07/24 13:49:30;;;;;;;5.27;1.10;;;;;;;25.44;55.44;101052.86;5183083;56;1138963;-68
2022/07/24 13:54:36;;;;;;;1.95;1.37;;;;;;;25.41;54.90;101037.85;5197179;56;1139102;-70
2022/07/24 13:59:41;;;;;;;2.35;1.15;;;;;;;25.28;55.04;101041.87;5239662;56;1139001;-71
2022/07/24 14:04:47;;;;;;;0.78;0.78;;;;;;;25.00;53.76;101037.06;5240399;56;1139017;-69
2022/07/24 14:09:54;;;;;;;1.65;1.40;;;;;;;24.79;54.64;101025.77;5243024;56;1138994;-70
2022/07/24 14:15:00;;;;;;;2.90;1.30;;;;;;;24.79;54.64;101025.77;5249521;56;1139148;-67
2022/07/24 14:20:07;;;;;;;2.02;1.35;;;;;;;24.93;56.19;101029.38;5249620;56;1139050;-68
2022/07/24 14:25:13;;;;;;;1.52;1.10;;;;;;;25.16;56.27;101019.96;5198827;56;1139093;-70
2022/07/24 14:30:20;;;;;;;1.52;1.42;;;;;;;25.49;55.25;101013.30;5193754;56;1139361;-70
2022/07/24 14:35:27;;;;;;;2.67;1.45;;;;;;;25.75;55.04;101001.71;5228618;56;1139312;-70
2022/07/24 14:40:33;;;;;;;3.52;1.25;;;;;;;25.95;53.53;101002.25;5228666;56;1139147;-70
2022/07/24 14:45:39;;;;;;;1.82;1.30;;;;;;;25.90;51.41;101008.29;5240080;56;1139227;-70
2022/07/24 14:50:44;;;;;;;0.80;0.80;;;;;;;25.85;51.26;101001.30;5155424;56;1139230;-70
2022/07/24 14:55:50;;;;;;;2.67;1.40;;;;;;;25.68;51.85;101000.85;5207654;56;1139084;-70
2022/07/24 15:00:55;;;;;;;1.42;1.07;;;;;;;25.84;52.73;100988.78;5236735;56;1139108;-68
2022/07/24 15:06:01;;;;;;;2.50;1.20;;;;;;;25.98;51.84;100989.09;5236649;56;1139276;-69
2022/07/24 15:11:07;;;;;;;2.65;1.30;;;;;;;26.12;52.27;100984.53;5236743;56;1139030;-70
2022/07/24 15:16:12;;;;;;;4.35;1.25;;;;;;;26.24;50.93;100984.20;5232642;56;1139048;-71
2022/07/24 15:21:19;;;;;;;1.92;1.12;;;;;;;26.22;51.46;100985.77;5177742;56;1138996;-67
2022/07/24 15:26:25;;;;;;;2.42;1.10;;;;;;;26.24;50.36;100980.14;5184565;56;1139023;-71
2022/07/24 15:31:31;;;;;;;1.15;1.12;;;;;;;26.31;49.02;100972.84;5190498;56;1139059;-70
2022/07/24 15:36:37;;;;;;;2.45;1.12;;;;;;;26.49;51.65;100970.31;5191499;56;1139084;-68
2022/07/24 15:41:44;;;;;;;1.37;1.27;;;;;;;26.49;51.65;100970.31;5188986;56;1139000;-70
2022/07/24 15:46:50;;;;;;;1.17;1.17;;;;;;;26.63;50.43;100966.52;5187443;56;1139050;-70
2022/07/24 15:51:57;;;;;;;2.80;1.02;;;;;;;26.66;48.28;100959.84;5182893;56;1139059;-67
2022/07/24 15:57:04;;;;;;;2.30;1.20;;;;;;;26.58;47.31;100954.66;5189659;56;1139073;-70
2022/07/24 16:02:10;;;;;;;1.65;1.45;;;;;;;26.47;47.24;100946.63;5175190;56;1138595;-68
2022/07/24 16:07:24;;;;;;;1.65;1.30;;;;;;;26.40;47.69;100942.28;5183401;56;1139036;-71
2022/07/24 16:12:26;;;;;;;1.35;1.20;;;;;;;26.48;46.97;100937.97;5167788;56;1139588;-69
2022/07/24 16:17:31;;;;;;;5.28;1.92;;;;;;;26.59;46.51;100939.49;5169697;56;1139019;-69
2022/07/24 16:22:38;;;;;;;5.42;1.52;;;;;;;26.57;45.62;100924.50;5233526;56;1139156;-71
2022/07/24 16:27:43;;;;;;;5.10;1.45;;;;;;;26.58;47.29;100926.97;5148790;56;1139053;-68
2022/07/24 16:32:49;;;;;;;1.32;1.25;;;;;;;26.68;46.77;100929.25;5151702;56;1139056;-71
2022/07/24 16:37:55;;;;;;;2.58;1.40;;;;;;;26.71;46.98;100930.19;5158967;57;1139113;-70
2022/07/24 16:43:01;;;;;;;2.55;1.30;;;;;;;26.65;46.29;100930.20;5158364;57;1139101;-68
2022/07/24 16:48:07;;;;;;;4.37;1.30;;;;;;;26.58;46.31;100924.81;5195098;56;1139105;-69
2022/07/24 16:53:13;;;;;;;3.30;1.30;;;;;;;26.54;45.23;100923.56;5245125;56;1136252;-71
2022/07/24 16:58:19;;;;;;;5.33;1.27;;;;;;;26.46;45.09;100925.97;5245602;56;1136929;-69
2022/07/24 17:03:25;;;;;;;1.30;1.20;;;;;;;26.40;44.64;100921.42;5183284;56;1137029;-68
2022/07/24 17:08:31;;;;;;;1.92;1.00;;;;;;;26.33;44.64;100923.82;5207683;56;1136931;-69
2022/07/24 17:13:37;;;;;;;1.98;0.93;;;;;;;26.29;43.83;100913.91;5225787;56;1136952;-70
2022/07/24 17:18:43;;;;;;;1.70;1.17;;;;;;;26.20;43.64;100919.23;5174865;56;1136866;-70
2022/07/24 17:23:49;;;;;;;0.90;0.90;;;;;;;26.12;43.52;100918.11;5140602;57;1136952;-71
2022/07/24 17:28:55;;;;;;;1.32;1.12;;;;;;;26.01;44.26;100913.31;5107017;57;1136978;-69
2022/07/24 17:34:02;;;;;;;4.10;1.00;;;;;;;26.02;44.86;100910.39;5133175;56;1136912;-69
2022/07/24 17:39:07;;;;;;;1.57;1.00;;;;;;;26.06;45.10;100908.09;5149476;56;1137204;-66
2022/07/24 17:44:13;;;;;;;3.70;0.70;;;;;;;26.06;44.33;100906.22;5149208;57;1137151;-68
2022/07/24 17:49:18;;;;;;;1.80;1.70;;;;;;;26.01;44.32;100916.02;5151294;57;1137034;-69
2022/07/24 17:54:24;;;;;;;1.92;1.40;;;;;;;25.99;44.48;100908.09;5107857;57;1137088;-68
2022/07/24 17:59:32;;;;;;;4.95;1.57;;;;;;;25.96;44.82;100900.93;5073069;57;1137221;-68
2022/07/24 18:04:38;;;;;;;1.70;1.60;;;;;;;25.89;45.96;100905.82;5150457;57;1136950;-65
2022/07/24 18:09:44;;;;;;;4.75;1.32;;;;;;;25.87;46.80;100902.48;5234351;56;1137055;-68
2022/07/24 18:14:52;;;;;;;8.05;3.70;;;;;;;25.82;46.51;100904.14;5240274;56;1137262;-68
2022/07/24 18:19:57;;;;;;;8.08;3.08;;;;;;;25.79;47.49;100905.42;5240314;56;1135060;-67
2022/07/24 18:25:03;;;;;;;20.57;3.77;;;;;;;25.67;47.67;100900.81;5195070;56;1135004;-65
2022/07/24 18:30:11;;;;;;;14.58;4.20;;;;;;;25.61;47.75;100900.28;5161807;57;1141122;-67
2022/07/24 18:35:16;;;;;;;5.50;2.47;;;;;;;25.51;48.22;100896.09;5146339;56;1141242;-68
2022/07/24 18:40:22;;;;;;;13.83;2.70;;;;;;;25.34;48.74;100899.42;5160789;57;1139349;-66
2022/07/24 18:45:28;;;;;;;9.57;2.73;;;;;;;25.23;49.62;100901.68;5160907;56;1141147;-66
2022/07/24 18:50:34;;;;;;;7.00;3.80;;;;;;;25.17;50.44;100905.75;5149142;56;1139107;-67
2022/07/24 18:55:40;;;;;;;21.07;4.00;;;;;;;25.03;51.77;100910.30;5107583;57;1139394;-68
2022/07/24 19:00:46;;;;;;;22.05;4.92;;;;;;;24.92;52.35;100911.34;5137725;56;1141214;-68
2022/07/24 19:05:51;;;;;;;19.00;4.85;;;;;;;24.66;52.47;100915.63;5160294;57;1141109;-68
2022/07/24 19:10:57;;;;;;;14.10;5.37;;;;;;;24.39;52.91;100923.30;5160502;57;1141158;-69
2022/07/24 19:16:03;;;;;;;16.32;5.87;;;;;;;24.10;53.97;100929.22;5160493;57;1141099;-69
2022/07/24 19:21:08;;;;;;;17.37;6.92;;;;;;;23.87;54.93;100941.28;5091632;57;1141134;-70
2022/07/24 19:26:14;;;;;;;16.07;6.97;;;;;;;23.78;55.79;100931.98;5172138;56;1141092;-68
2022/07/24 19:31:20;;;;;;;15.72;7.05;;;;;;;23.75;56.29;100941.83;5205930;56;1141171;-66
2022/07/24 19:36:26;;;;;;;14.70;5.55;;;;;;;23.63;56.46;100946.59;5144011;56;1141113;-69
2022/07/24 19:41:32;;;;;;;4.28;3.00;;;;;;;23.34;56.71;100953.77;5117302;57;1141124;-70
2022/07/24 19:46:39;;;;;;;8.78;2.98;;;;;;;23.21;57.36;100951.44;5117919;57;1139160;-70
2022/07/24 19:51:45;;;;;;;4.03;2.52;;;;;;;23.14;57.79;100956.23;5118990;57;1139044;-68
2022/07/24 19:56:51;;;;;;;5.55;3.50;;;;;;;23.17;58.26;100967.67;5107589;57;1138968;-70
2022/07/24 20:01:56;;;;;;;8.13;3.05;;;;;;;23.13;58.45;100966.70;5112156;57;1139057;-68
2022/07/24 20:07:02;;;;;;;8.23;3.17;;;;;;;23.02;58.74;100969.06;5068902;57;1139036;-68
2022/07/24 20:12:08;;;;;;;9.75;4.90;;;;;;;22.97;58.99;100966.92;5066861;57;1139084;-68
2022/07/24 20:17:14;;;;;;;4.05;2.72;;;;;;;22.81;59.05;100965.78;5025749;57;1139019;-67
2022/07/24 20:22:20;;;;;;;2.47;2.25;;;;;;;22.62;59.32;100971.70;5066854;57;1139110;-68
2022/07/24 20:27:26;;;;;;;4.35;2.12;;;;;;;22.42;59.85;100964.20;5148287;56;1139099;-70
2022/07/24 20:32:32;;;;;;;4.15;2.50;;;;;;;22.27;60.53;100963.86;5150401;56;1139050;-70
2022/07/24 20:37:37;;;;;;;13.58;3.20;;;;;;;22.26;60.89;100967.56;5156098;56;1139083;-68
2022/07/24 20:42:43;;;;;;;10.63;3.67;;;;;;;22.27;61.36;100971.94;5160387;57;1141064;-68
2022/07/24 20:47:49;;;;;;;7.00;2.80;;;;;;;22.22;61.75;100965.74;5160469;56;1141311;-67
2022/07/24 20:52:55;;;;;;;10.08;3.20;;;;;;;22.09;61.77;100970.42;5160379;56;1138985;-68
2022/07/24 20:58:00;;;;;;;10.78;3.47;;;;;;;22.03;62.13;100971.65;5117074;57;1141319;-69
2022/07/24 21:03:06;;;;;;;8.70;2.70;;;;;;;22.03;62.57;100971.14;5076663;57;1141209;-69
2022/07/24 21:08:12;;;;;;;7.40;3.45;;;;;;;22.03;62.69;100980.56;5076561;57;1139019;-68
2022/07/24 21:13:18;;;;;;;8.58;3.87;;;;;;;21.95;62.96;100980.63;5076516;57;1138983;-69
2022/07/24 21:18:24;;;;;;;8.63;3.17;;;;;;;21.89;63.07;100988.06;5076566;58;1139017;-70
2022/07/24 21:23:30;;;;;;;9.55;3.20;;;;;;;21.82;63.49;100988.48;5076608;57;1139034;-70
2022/07/24 21:28:35;;;;;;;9.25;3.25;;;;;;;21.65;63.63;100995.84;5076566;58;1138915;-70
2022/07/24 21:33:41;;;;;;;4.47;3.10;;;;;;;21.59;63.92;100990.32;5114344;57;1139048;-70
2022/07/24 21:38:49;;;;;;;5.90;3.00;;;;;;;21.54;64.46;100989.50;5161035;56;1139014;-68
2022/07/24 21:43:54;;;;;;;8.45;3.12;;;;;;;21.40;64.30;100996.49;5228598;56;1139000;-68
2022/07/24 21:49:00;;;;;;;5.22;2.90;;;;;;;21.25;64.77;100989.36;5228500;56;1138470;-70
2022/07/24 21:54:06;;;;;;;4.03;2.90;;;;;;;21.17;65.09;100989.38;5228392;56;1139014;-69
2022/07/24 21:59:12;;;;;;;11.00;3.30;;;;;;;21.03;65.47;100988.28;5145507;57;1137187;-68
2022/07/24 22:04:17;;;;;;;4.97;2.77;;;;;;;20.98;65.96;100986.61;5158452;57;1138999;-69
2022/07/24 22:09:23;;;;;;;5.62;2.50;;;;;;;20.86;66.16;100981.30;5158618;57;1137125;-69
2022/07/24 22:14:29;;;;;;;4.85;3.05;;;;;;;20.79;66.49;100980.30;5158751;57;1136910;-68
2022/07/24 22:19:34;;;;;;;4.20;2.87;;;;;;;20.67;66.67;100982.02;5158665;57;1137325;-68
2022/07/24 22:24:40;;;;;;;10.60;2.98;;;;;;;20.65;66.96;100980.02;5150171;57;1136949;-69
2022/07/24 22:29:48;;;;;;;3.95;3.00;;;;;;;20.63;67.21;100979.84;5138367;57;1139202;-70
2022/07/24 22:34:54;;;;;;;5.00;3.90;;;;;;;20.58;67.62;100979.05;5118965;57;1137086;-71
2022/07/24 22:40:09;;;;;;;5.08;2.55;;;;;;;20.45;67.96;100977.41;5132430;56;1137038;-71
2022/07/24 22:45:15;;;;;;;7.95;5.33;;;;;;;20.34;68.06;100971.00;5128135;56;1136886;-70
2022/07/24 22:50:22;;;;;;;6.75;2.95;;;;;;;20.33;68.34;100971.50;5193694;56;1137170;-69
2022/07/24 22:55:29;;;;;;;3.62;2.65;;;;;;;20.29;68.40;100968.01;5132649;56;1136944;-71
2022/07/24 23:00:36;;;;;;;2.87;2.30;;;;;;;20.27;68.54;100969.52;5103234;57;1137116;-68
2022/07/24 23:05:42;;;;;;;5.47;3.02;;;;;;;20.21;68.66;100973.38;5092188;57;1136990;-70
2022/07/24 23:10:49;;;;;;;7.60;2.50;;;;;;;20.17;68.86;100972.03;5119034;57;1136939;-68
2022/07/24 23:15:55;;;;;;;4.42;2.40;;;;;;;20.09;68.89;100970.71;5118710;57;1136963;-70